createdAt,value
2022-12-09T00:00:07.749Z,25.92
2022-12-09T00:02:34.941Z,27.40
2022-12-09T00:05:02.318Z,29.25
2022-12-09T00:07:29.522Z,26.60
2022-12-09T00:09:57.025Z,27.58
2022-12-09T00:12:23.911Z,27.00
2022-12-09T00:14:50.822Z,25.30
2022-12-09T00:17:18.008Z,27.70
2022-12-09T00:19:44.908Z,27.40
2022-12-09T00:22:11.881Z,26.55
2022-12-09T00:24:38.723Z,26.23
2022-12-09T00:27:05.818Z,26.85
2022-12-09T00:29:32.814Z,27.30
2022-12-09T00:31:59.911Z,29.02
2022-12-09T00:34:27.034Z,28.85
2022-12-09T00:36:54.063Z,27.65
2022-12-09T00:39:20.964Z,26.98
2022-12-09T00:41:49.205Z,23.05
2022-12-09T00:44:16.366Z,22.10
2022-12-09T00:46:43.443Z,20.13
2022-12-09T00:49:11.525Z,20.02
2022-12-09T00:51:38.615Z,18.20
2022-12-09T00:54:05.646Z,18.55
2022-12-09T00:56:33.234Z,17.40
2022-12-09T00:59:00.328Z,18.95
2022-12-09T01:01:28.484Z,17.70
2022-12-09T01:03:56.126Z,19.63
2022-12-09T01:06:25.171Z,20.50
2022-12-09T01:08:52.926Z,22.92
2022-12-09T01:11:26.455Z,23.40
2022-12-09T01:13:53.708Z,23.73
2022-12-09T01:16:25.052Z,23.88
2022-12-09T01:18:56.509Z,25.13
2022-12-09T01:21:38.403Z,25.58
2022-12-09T01:24:18.754Z,25.13
2022-12-09T01:26:56.854Z,29.48
2022-12-09T01:30:09.647Z,29.15
2022-12-09T01:32:40.192Z,30.85
2022-12-09T01:35:26.444Z,25.85
2022-12-09T01:37:53.279Z,24.77
2022-12-09T01:40:24.291Z,22.58
2022-12-09T01:43:06.937Z,23.45
2022-12-09T01:45:47.872Z,22.48
2022-12-09T01:48:17.439Z,21.98
2022-12-09T01:50:49.720Z,25.50
2022-12-09T01:53:19.571Z,23.73
2022-12-09T01:55:46.760Z,22.33
2022-12-09T01:58:14.877Z,24.00
2022-12-09T02:00:45.781Z,24.60
2022-12-09T02:03:13.261Z,29.55
2022-12-09T02:05:52.832Z,23.42
2022-12-09T02:08:20.144Z,23.90
2022-12-09T02:11:29.039Z,61.63
2022-12-09T02:14:05.744Z,25.40
2022-12-09T02:16:42.050Z,35.67
2022-12-09T02:19:15.054Z,31.15
2022-12-09T02:24:35.362Z,21.40
2022-12-09T02:27:17.074Z,19.83
2022-12-09T02:30:08.853Z,20.33
2022-12-09T02:32:39.234Z,20.88
2022-12-09T02:35:14.796Z,28.10
2022-12-09T02:38:01.104Z,84.68
2022-12-09T02:40:52.524Z,22.15
2022-12-09T02:43:24.410Z,24.00
2022-12-09T02:45:52.326Z,42.03
2022-12-09T02:48:25.665Z,55.45
2022-12-09T02:50:53.662Z,78.68
2022-12-09T02:53:21.591Z,90.47
2022-12-09T02:55:50.472Z,97.88
2022-12-09T02:58:17.880Z,57.40
2022-12-09T03:00:46.424Z,23.95
2022-12-09T03:03:17.743Z,23.02
2022-12-09T03:05:47.932Z,21.90
2022-12-09T03:08:17.755Z,23.25
2022-12-09T03:10:57.207Z,22.73
2022-12-09T03:13:47.398Z,27.58
2022-12-09T03:16:37.525Z,25.83
2022-12-09T03:19:16.870Z,25.58
2022-12-09T03:21:49.249Z,22.50
2022-12-09T03:24:23.236Z,18.65
2022-12-09T03:26:51.801Z,25.05
2022-12-09T03:29:22.066Z,26.63
2022-12-09T03:31:52.490Z,28.48
2022-12-09T03:34:26.923Z,31.63
2022-12-09T03:36:54.667Z,33.53
2022-12-09T03:39:26.253Z,31.23
2022-12-09T03:41:59.038Z,31.15
2022-12-09T03:44:42.612Z,33.45
2022-12-09T03:47:10.648Z,35.20
2022-12-09T03:49:39.643Z,29.67
2022-12-09T03:52:25.273Z,34.22
2022-12-09T03:55:01.073Z,29.90
2022-12-09T03:57:28.115Z,27.55
2022-12-09T03:59:58.691Z,28.02
2022-12-09T04:02:25.802Z,29.73
2022-12-09T04:04:53.384Z,27.67
2022-12-09T04:07:20.294Z,28.60
2022-12-09T04:09:47.271Z,29.45
2022-12-09T04:12:14.154Z,30.13
2022-12-09T04:14:41.127Z,30.70
2022-12-09T04:17:08.375Z,29.05
2022-12-09T04:19:35.386Z,27.40
2022-12-09T04:22:02.454Z,28.80
2022-12-09T04:24:29.449Z,27.98
2022-12-09T04:26:56.477Z,27.80
2022-12-09T04:29:23.296Z,28.02
2022-12-09T04:31:52.491Z,30.17
2022-12-09T04:34:19.342Z,29.20
2022-12-09T04:36:46.224Z,29.90
2022-12-09T04:39:13.387Z,27.92
2022-12-09T04:41:40.537Z,29.77
2022-12-09T04:44:07.358Z,29.60
2022-12-09T04:46:34.379Z,29.10
2022-12-09T04:49:01.283Z,27.25
2022-12-09T04:51:29.649Z,29.05
2022-12-09T04:53:59.948Z,28.55
2022-12-09T04:56:27.252Z,27.42
2022-12-09T04:58:54.253Z,30.13
2022-12-09T05:01:26.580Z,29.95
2022-12-09T05:03:56.994Z,29.80
2022-12-09T05:06:24.425Z,29.80
2022-12-09T05:08:51.532Z,35.22
2022-12-09T05:11:20.633Z,32.75
2022-12-09T05:13:48.091Z,30.27
2022-12-09T05:16:17.430Z,30.25
2022-12-09T05:18:47.517Z,31.83
2022-12-09T05:21:18.599Z,30.42
2022-12-09T05:23:50.445Z,41.83
2022-12-09T05:26:21.376Z,43.30
2022-12-09T05:28:49.494Z,40.70
2022-12-09T05:31:20.396Z,37.55
2022-12-09T05:33:49.603Z,34.45
2022-12-09T05:36:19.539Z,32.20
2022-12-09T05:38:46.995Z,30.48
2022-12-09T05:41:14.172Z,30.42
2022-12-09T05:43:41.699Z,31.02
2022-12-09T05:46:09.410Z,29.55
2022-12-09T05:48:37.356Z,31.13
2022-12-09T05:51:18.289Z,32.83
2022-12-09T05:53:45.653Z,30.75
2022-12-09T05:56:16.960Z,33.38
2022-12-09T05:58:44.405Z,32.20
2022-12-09T06:01:11.965Z,32.72
2022-12-09T06:03:39.057Z,32.40
2022-12-09T06:06:12.574Z,32.20
2022-12-09T06:08:41.159Z,32.17
2022-12-09T06:11:19.849Z,32.13
2022-12-09T06:13:48.426Z,32.00
2022-12-09T06:16:19.778Z,33.20
2022-12-09T06:18:47.582Z,32.33
2022-12-09T06:21:19.156Z,32.55
2022-12-09T06:23:46.954Z,31.42
2022-12-09T06:26:20.301Z,31.10
2022-12-09T06:28:48.136Z,28.98
2022-12-09T06:31:16.375Z,29.88
2022-12-09T06:34:00.025Z,30.10
2022-12-09T06:36:29.386Z,30.63
2022-12-09T06:38:58.821Z,29.48
2022-12-09T06:41:27.745Z,31.15
2022-12-09T06:43:57.877Z,30.05
2022-12-09T06:46:26.389Z,29.90
2022-12-09T06:48:54.914Z,30.13
2022-12-09T06:51:23.671Z,30.58
2022-12-09T06:53:50.923Z,29.50
2022-12-09T06:56:18.495Z,30.35
2022-12-09T06:58:46.939Z,33.47
2022-12-09T07:01:16.508Z,24.70
2022-12-09T07:03:45.703Z,26.95
2022-12-09T07:06:26.104Z,29.00
2022-12-09T07:08:54.083Z,26.65
2022-12-09T07:11:21.152Z,25.85
2022-12-09T07:13:49.157Z,25.40
2022-12-09T07:16:16.400Z,28.48
2022-12-09T07:18:43.941Z,28.42
2022-12-09T07:21:13.943Z,27.15
2022-12-09T07:23:41.505Z,26.88
2022-12-09T07:26:08.777Z,25.73
2022-12-09T07:28:37.638Z,28.55
2022-12-09T07:31:05.190Z,26.25
2022-12-09T07:33:32.664Z,26.83
2022-12-09T07:36:00.221Z,25.85
2022-12-09T07:38:27.771Z,26.13
2022-12-09T07:40:54.924Z,26.92
2022-12-09T07:43:22.440Z,27.65
2022-12-09T07:45:50.008Z,28.85
2022-12-09T07:48:17.101Z,30.02
2022-12-09T07:50:44.750Z,34.95
2022-12-09T07:53:11.760Z,42.65
2022-12-09T07:55:38.658Z,53.00
2022-12-09T07:58:05.902Z,43.65
2022-12-09T08:00:32.734Z,38.47
2022-12-09T08:03:00.052Z,37.15
2022-12-09T08:05:27.457Z,30.05
2022-12-09T08:07:54.883Z,36.10
2022-12-09T08:10:22.194Z,37.65
2022-12-09T08:12:49.995Z,37.08
2022-12-09T08:15:19.505Z,34.70
2022-12-09T08:17:46.613Z,35.67
2022-12-09T08:20:15.181Z,36.83
2022-12-09T08:22:42.657Z,36.35
2022-12-09T08:25:10.987Z,33.58
2022-12-09T08:27:38.270Z,34.35
2022-12-09T08:30:06.873Z,35.03
2022-12-09T08:32:34.328Z,34.22
2022-12-09T08:35:01.888Z,32.38
2022-12-09T08:37:29.235Z,31.20
2022-12-09T08:39:56.511Z,42.03
2022-12-09T08:42:23.664Z,30.38
2022-12-09T08:44:51.828Z,34.33
2022-12-09T08:47:22.139Z,31.23
2022-12-09T08:49:49.302Z,28.58
2022-12-09T08:52:16.360Z,27.48
2022-12-09T08:54:43.706Z,28.73
2022-12-09T08:57:10.704Z,30.13
2022-12-09T08:59:43.429Z,30.42
2022-12-09T09:02:12.531Z,28.58
2022-12-09T09:04:40.120Z,31.73
2022-12-09T09:07:07.377Z,33.03
2022-12-09T09:09:34.839Z,29.95
2022-12-09T09:12:01.944Z,32.58
2022-12-09T09:14:29.265Z,28.67
2022-12-09T09:16:56.413Z,30.10
2022-12-09T09:19:26.170Z,31.17
2022-12-09T09:21:55.290Z,28.65
2022-12-09T09:24:24.637Z,30.85
2022-12-09T09:26:53.250Z,32.55
2022-12-09T09:29:22.796Z,30.00
2022-12-09T09:31:54.534Z,32.75
2022-12-09T09:34:23.003Z,31.25
2022-12-09T09:36:51.386Z,33.63
2022-12-09T09:39:20.003Z,31.67
2022-12-09T09:41:57.181Z,38.47
2022-12-09T09:44:33.804Z,41.00
2022-12-09T09:47:02.269Z,32.40
2022-12-09T09:49:37.411Z,28.48
2022-12-09T09:52:19.726Z,29.17
2022-12-09T09:54:48.124Z,34.15
2022-12-09T09:57:22.176Z,35.88
2022-12-09T10:00:09.742Z,35.15
2022-12-09T10:03:23.120Z,28.27
2022-12-09T10:05:54.992Z,29.17
2022-12-09T10:08:40.906Z,28.20
2022-12-09T10:11:21.233Z,27.90
2022-12-09T10:14:07.029Z,25.85
2022-12-09T10:16:51.686Z,27.60
2022-12-09T10:19:31.227Z,25.23
2022-12-09T10:22:00.096Z,28.33
2022-12-09T10:24:37.551Z,27.40
2022-12-09T10:27:29.130Z,27.13
2022-12-09T10:30:02.570Z,27.20
2022-12-09T10:32:33.975Z,29.58
2022-12-09T10:35:02.432Z,26.33
2022-12-09T10:37:36.167Z,26.42
2022-12-09T10:40:12.407Z,26.02
2022-12-09T10:43:08.820Z,27.80
2022-12-09T10:48:45.468Z,24.60
2022-12-09T10:51:21.618Z,26.38
2022-12-09T10:53:53.145Z,25.13
2022-12-09T10:56:23.700Z,26.52
2022-12-09T10:59:08.195Z,27.10
2022-12-09T11:01:55.732Z,24.92
2022-12-09T11:04:33.136Z,24.85
2022-12-09T11:07:05.404Z,26.58
2022-12-09T11:09:41.896Z,34.90
2022-12-09T11:12:31.022Z,25.92
2022-12-09T11:15:38.962Z,26.15
2022-12-09T11:18:19.411Z,24.52
2022-12-09T11:21:02.052Z,24.33
2022-12-09T11:23:29.954Z,25.02
2022-12-09T11:26:07.895Z,26.92
2022-12-09T11:28:37.864Z,26.60
2022-12-09T11:31:30.011Z,25.52
2022-12-09T11:34:05.452Z,23.50
2022-12-09T11:36:40.625Z,25.80
2022-12-09T11:39:29.513Z,26.15
2022-12-09T11:42:25.928Z,25.17
2022-12-09T11:45:16.642Z,24.15
2022-12-09T11:50:36.576Z,23.08
2022-12-09T11:53:12.236Z,23.02
2022-12-09T11:55:54.389Z,22.83
2022-12-09T11:58:27.951Z,21.67
2022-12-09T12:01:03.217Z,21.63
2022-12-09T12:03:44.893Z,21.05
2022-12-09T12:06:21.921Z,20.50
2022-12-09T12:08:59.356Z,20.55
2022-12-09T12:11:37.099Z,21.85
2022-12-09T12:14:10.234Z,21.65
2022-12-09T12:17:04.670Z,21.23
2022-12-09T12:19:35.345Z,20.50
2022-12-09T12:22:54.699Z,20.15
2022-12-09T12:25:36.741Z,17.65
2022-12-09T12:28:33.754Z,16.65
2022-12-09T12:31:06.595Z,15.88
2022-12-09T12:34:23.531Z,15.23
2022-12-09T12:36:56.227Z,14.95
2022-12-09T12:39:37.677Z,15.88
2022-12-09T12:42:23.719Z,15.77
2022-12-09T12:45:15.767Z,16.25
2022-12-09T12:48:20.943Z,15.45
2022-12-09T12:51:12.713Z,14.27
2022-12-09T12:54:04.389Z,16.50
2022-12-09T12:56:54.288Z,16.15
2022-12-09T12:59:36.170Z,14.93
2022-12-09T13:02:31.543Z,15.77
2022-12-09T13:05:03.751Z,15.13
2022-12-09T13:07:41.062Z,15.87
2022-12-09T13:10:16.317Z,17.30
2022-12-09T13:13:01.676Z,16.13
2022-12-09T13:15:44.304Z,19.83
2022-12-09T13:18:36.550Z,20.15
2022-12-09T13:21:05.783Z,22.52
2022-12-09T13:24:00.880Z,21.48
2022-12-09T13:26:41.802Z,23.67
2022-12-09T13:29:33.482Z,23.10
2022-12-09T13:32:25.091Z,26.48
2022-12-09T13:34:56.736Z,28.23
2022-12-09T13:37:41.987Z,28.27
2022-12-09T13:40:20.793Z,30.73
2022-12-09T13:42:56.660Z,29.95
2022-12-09T13:45:28.304Z,29.60
2022-12-09T13:48:20.898Z,31.02
2022-12-09T13:50:56.103Z,31.10
2022-12-09T13:53:47.000Z,31.02
2022-12-09T13:56:16.719Z,30.77
2022-12-09T13:59:11.404Z,29.27
2022-12-09T14:02:14.032Z,30.60
2022-12-09T14:05:07.789Z,30.25
2022-12-09T14:08:00.361Z,30.08
2022-12-09T14:10:37.742Z,29.25
2022-12-09T14:13:26.041Z,31.02
2022-12-09T14:16:16.120Z,28.67
2022-12-09T14:18:43.680Z,28.00
2022-12-09T14:21:19.333Z,31.90
2022-12-09T14:24:07.857Z,37.65
2022-12-09T14:26:42.417Z,34.33
2022-12-09T14:29:09.357Z,31.77
2022-12-09T14:31:55.960Z,30.00
2022-12-09T14:34:36.590Z,31.10
2022-12-09T14:37:17.273Z,31.90
2022-12-09T14:39:51.699Z,30.52
2022-12-09T14:42:41.777Z,32.55
2022-12-09T14:45:56.105Z,31.50
2022-12-09T14:48:30.510Z,31.15
2022-12-09T14:51:18.555Z,30.75
2022-12-09T14:53:56.312Z,32.97
2022-12-09T14:56:24.328Z,34.47
2022-12-09T14:58:56.706Z,33.15
2022-12-09T15:01:23.698Z,33.47
2022-12-09T15:03:56.440Z,32.50
2022-12-09T15:06:26.861Z,34.15
2022-12-09T15:08:56.093Z,28.85
2022-12-09T15:11:33.532Z,26.65
2022-12-09T15:14:33.130Z,29.05
2022-12-09T15:17:00.036Z,29.23
2022-12-09T15:19:59.066Z,30.40
2022-12-09T15:22:37.070Z,31.38
2022-12-09T15:25:04.559Z,31.33
2022-12-09T15:27:31.631Z,32.53
2022-12-09T15:29:58.571Z,31.55
2022-12-09T15:32:28.617Z,30.58
2022-12-09T15:34:55.858Z,31.17
2022-12-09T15:37:26.850Z,30.02
2022-12-09T15:40:09.132Z,31.10
2022-12-09T15:42:39.069Z,30.75
2022-12-09T15:45:22.148Z,32.92
2022-12-09T15:47:58.505Z,31.25
2022-12-09T15:50:51.284Z,31.20
2022-12-09T15:53:36.903Z,30.38
2022-12-09T15:56:12.660Z,31.48
2022-12-09T15:58:51.894Z,31.58
2022-12-09T16:01:28.266Z,32.60
2022-12-09T16:03:56.912Z,34.55
2022-12-09T16:06:27.335Z,31.63
2022-12-09T16:08:54.235Z,35.58
2022-12-09T16:11:41.652Z,33.65
2022-12-09T16:14:09.434Z,41.40
2022-12-09T16:17:03.049Z,38.78
2022-12-09T16:19:34.898Z,37.42
2022-12-09T16:22:25.987Z,35.22
2022-12-09T16:25:14.720Z,36.78
2022-12-09T16:27:48.470Z,34.63
2022-12-09T16:30:23.561Z,39.05
2022-12-09T16:32:53.980Z,37.47
2022-12-09T16:35:28.577Z,32.63
2022-12-09T16:37:58.262Z,33.95
2022-12-09T16:40:25.083Z,38.00
2022-12-09T16:42:54.371Z,35.38
2022-12-09T16:45:33.796Z,29.38
2022-12-09T16:48:01.296Z,30.42
2022-12-09T16:50:34.032Z,30.60
2022-12-09T16:53:01.058Z,29.67
2022-12-09T16:55:30.064Z,27.98
2022-12-09T16:57:58.310Z,27.17
2022-12-09T17:00:25.892Z,26.38
2022-12-09T17:03:01.635Z,24.00
2022-12-09T17:05:28.775Z,22.60
2022-12-09T17:07:55.877Z,21.73
2022-12-09T17:10:22.927Z,22.38
2022-12-09T17:12:52.742Z,21.02
2022-12-09T17:15:20.745Z,20.05
2022-12-09T17:17:49.019Z,20.65
2022-12-09T17:20:16.438Z,22.25
2022-12-09T17:22:43.352Z,20.25
2022-12-09T17:25:10.712Z,68.18
2022-12-09T17:27:37.943Z,85.22
2022-12-09T17:30:06.305Z,27.38
2022-12-09T17:32:33.870Z,24.75
2022-12-09T17:35:01.282Z,21.80
2022-12-09T17:37:28.093Z,22.30
2022-12-09T17:40:03.019Z,22.35
2022-12-09T17:42:30.409Z,23.27
2022-12-09T17:44:57.304Z,22.48
2022-12-09T17:47:24.219Z,23.35
2022-12-09T17:49:51.241Z,22.83
2022-12-09T17:52:18.064Z,21.45
2022-12-09T17:54:45.881Z,21.20
2022-12-09T17:57:12.743Z,22.30
2022-12-09T17:59:39.896Z,24.88
2022-12-09T18:02:06.955Z,26.52
2022-12-09T18:04:33.889Z,20.42
2022-12-09T18:07:00.694Z,24.13
2022-12-09T18:09:27.541Z,21.08
2022-12-09T18:11:54.359Z,20.40
2022-12-09T18:14:21.264Z,22.65
2022-12-09T18:16:49.222Z,23.92
2022-12-09T18:19:17.787Z,20.67
2022-12-09T18:21:45.171Z,19.60
2022-12-09T18:24:12.355Z,19.88
2022-12-09T18:26:41.967Z,21.65
2022-12-09T18:29:10.196Z,20.35
2022-12-09T18:31:37.242Z,23.00
2022-12-09T18:34:04.218Z,28.25
2022-12-09T18:36:31.618Z,26.60
2022-12-09T18:39:00.180Z,22.35
2022-12-09T18:41:29.467Z,21.45
2022-12-09T18:43:57.614Z,22.13
2022-12-09T18:46:30.783Z,18.75
2022-12-09T18:49:02.856Z,20.85
2022-12-09T18:51:31.285Z,19.07
2022-12-09T18:53:58.909Z,16.30
2022-12-09T18:56:26.285Z,17.35
2022-12-09T18:59:09.511Z,18.15
2022-12-09T19:01:40.411Z,17.95
2022-12-09T19:04:13.801Z,18.73
2022-12-09T19:09:11.138Z,19.80
2022-12-09T19:11:39.525Z,20.70
2022-12-09T19:14:07.450Z,19.42
2022-12-09T19:16:34.605Z,19.77
2022-12-09T19:19:08.747Z,17.65
2022-12-09T19:21:36.935Z,19.73
2022-12-09T19:24:03.889Z,19.00
2022-12-09T19:26:32.640Z,19.27
2022-12-09T19:29:01.998Z,19.50
2022-12-09T19:31:40.506Z,21.17
2022-12-09T19:34:08.440Z,20.88
2022-12-09T19:36:35.765Z,20.70
2022-12-09T19:39:04.003Z,26.88
2022-12-09T19:41:31.293Z,26.10
2022-12-09T19:43:59.668Z,24.58
2022-12-09T19:46:27.580Z,24.23
2022-12-09T19:48:55.049Z,21.02
2022-12-09T19:51:22.743Z,22.45
2022-12-09T19:53:49.972Z,21.33
2022-12-09T19:56:19.409Z,24.02
2022-12-09T19:58:47.153Z,23.05
2022-12-09T20:01:17.691Z,30.10
2022-12-09T20:03:46.216Z,31.55
2022-12-09T20:06:15.872Z,26.40
2022-12-09T20:08:43.508Z,31.15
2022-12-09T20:11:13.983Z,27.05
2022-12-09T20:13:41.222Z,22.65
2022-12-09T20:16:09.922Z,23.02
2022-12-09T20:18:37.244Z,23.85
2022-12-09T20:21:06.158Z,23.10
2022-12-09T20:23:34.890Z,23.85
2022-12-09T20:26:10.404Z,25.27
2022-12-09T20:28:38.361Z,23.80
2022-12-09T20:31:10.352Z,23.42
2022-12-09T20:33:38.114Z,21.73
2022-12-09T20:36:12.901Z,20.77
2022-12-09T20:38:40.265Z,21.25
2022-12-09T20:41:12.329Z,23.02
2022-12-09T20:43:43.530Z,20.03
2022-12-09T20:46:15.014Z,23.25
2022-12-09T20:48:43.126Z,19.92
2022-12-09T20:51:16.122Z,18.55
2022-12-09T20:53:44.008Z,19.98
2022-12-09T20:56:11.676Z,18.40
2022-12-09T20:58:40.629Z,18.15
2022-12-09T21:01:19.114Z,17.65
2022-12-09T21:03:47.741Z,17.55
2022-12-09T21:06:16.268Z,64.25
2022-12-09T21:08:43.577Z,51.42
2022-12-09T21:11:16.456Z,22.05
2022-12-09T21:16:25.582Z,29.38
2022-12-09T21:18:54.620Z,23.30
2022-12-09T21:21:23.349Z,27.30
2022-12-09T21:23:51.976Z,28.45
2022-12-09T21:26:19.595Z,27.00
2022-12-09T21:28:47.411Z,26.35
2022-12-09T21:31:19.897Z,23.40
2022-12-09T21:33:48.193Z,22.73
2022-12-09T21:36:19.886Z,21.45
2022-12-09T21:38:46.943Z,23.85
2022-12-09T21:41:16.495Z,23.90
2022-12-09T21:43:44.501Z,24.20
2022-12-09T21:46:14.470Z,24.60
2022-12-09T21:48:41.866Z,24.33
2022-12-09T21:51:10.420Z,21.65
2022-12-09T21:53:37.531Z,24.67
2022-12-09T21:56:07.002Z,26.80
2022-12-09T21:58:34.805Z,21.08
2022-12-09T22:01:12.729Z,25.52
2022-12-09T22:03:40.488Z,24.33
2022-12-09T22:06:08.099Z,23.13
2022-12-09T22:08:35.895Z,27.38
2022-12-09T22:11:11.027Z,28.45
2022-12-09T22:13:39.691Z,28.65
2022-12-09T22:16:11.713Z,25.65
2022-12-09T22:18:39.659Z,23.57
2022-12-09T22:21:24.760Z,19.50
2022-12-09T22:23:54.439Z,19.88
2022-12-09T22:26:22.243Z,17.60
2022-12-09T22:28:50.361Z,17.88
2022-12-09T22:31:21.324Z,21.65
2022-12-09T22:33:49.249Z,28.77
2022-12-09T22:36:16.776Z,38.30
2022-12-09T22:38:44.028Z,22.83
2022-12-09T22:41:19.838Z,25.55
2022-12-09T22:43:48.907Z,24.88
2022-12-09T22:46:18.925Z,22.67
2022-12-09T22:48:45.977Z,23.48
2022-12-09T22:51:16.323Z,24.30
2022-12-09T22:53:43.780Z,22.10
2022-12-09T22:56:11.607Z,19.98
2022-12-09T22:58:39.170Z,20.20
2022-12-09T23:01:16.964Z,21.48
2022-12-09T23:03:44.085Z,19.90
2022-12-09T23:06:11.449Z,22.38
2022-12-09T23:08:39.770Z,22.25
2022-12-09T23:11:14.029Z,21.65
2022-12-09T23:13:41.553Z,24.55
2022-12-09T23:16:12.553Z,25.58
2022-12-09T23:18:40.109Z,23.35
2022-12-09T23:21:10.146Z,34.58
2022-12-09T23:23:37.557Z,41.40
2022-12-09T23:26:12.530Z,51.72
2022-12-09T23:28:41.426Z,25.83
2022-12-09T23:31:10.291Z,31.27
2022-12-09T23:33:38.255Z,25.33
2022-12-09T23:36:13.410Z,23.27
2022-12-09T23:39:12.019Z,30.17
2022-12-09T23:41:40.275Z,30.70
2022-12-09T23:44:09.863Z,35.72
2022-12-09T23:46:37.172Z,37.40
2022-12-09T23:49:05.154Z,38.28
2022-12-09T23:51:33.485Z,29.50
2022-12-09T23:54:05.409Z,28.13
2022-12-09T23:56:36.562Z,26.00
2022-12-09T23:59:05.991Z,24.67
